createdAt,value
2023-01-25T00:02:05.308Z,14.60
2023-01-25T00:04:35.531Z,13.40
2023-01-25T00:07:02.744Z,14.40
2023-01-25T00:09:29.973Z,14.20
2023-01-25T00:11:58.208Z,13.57
2023-01-25T00:14:25.564Z,13.87
2023-01-25T00:16:53.257Z,14.27
2023-01-25T00:19:20.726Z,13.67
2023-01-25T00:21:48.100Z,13.57
2023-01-25T00:24:16.011Z,12.93
2023-01-25T00:26:44.101Z,13.07
2023-01-25T00:29:14.824Z,12.13
2023-01-25T00:31:57.599Z,12.90
2023-01-25T00:34:25.129Z,13.03
2023-01-25T00:36:52.336Z,13.00
2023-01-25T00:39:19.764Z,12.27
2023-01-25T00:41:46.984Z,12.93
2023-01-25T00:44:14.612Z,12.53
2023-01-25T00:46:42.194Z,12.37
2023-01-25T00:49:19.718Z,12.00
2023-01-25T00:51:47.159Z,12.70
2023-01-25T00:54:14.546Z,11.90
2023-01-25T00:56:41.986Z,12.20
2023-01-25T00:59:10.657Z,12.30
2023-01-25T01:01:38.297Z,12.70
2023-01-25T01:04:06.563Z,12.67
2023-01-25T01:06:36.335Z,11.37
2023-01-25T01:09:04.244Z,11.80
2023-01-25T01:11:32.412Z,12.30
2023-01-25T01:14:00.234Z,11.83
2023-01-25T01:16:27.615Z,11.47
2023-01-25T01:18:54.994Z,12.00
2023-01-25T01:21:22.234Z,11.13
2023-01-25T01:23:49.637Z,11.43
2023-01-25T01:26:19.532Z,11.13
2023-01-25T01:28:46.821Z,12.20
2023-01-25T01:31:17.018Z,11.73
2023-01-25T01:33:56.068Z,11.53
2023-01-25T01:36:25.002Z,12.37
2023-01-25T01:38:52.221Z,11.77
2023-01-25T01:41:20.078Z,10.93
2023-01-25T01:43:47.648Z,12.17
2023-01-25T01:46:15.006Z,11.70
2023-01-25T01:48:45.211Z,12.43
2023-01-25T01:51:25.617Z,11.70
2023-01-25T01:53:55.590Z,11.90
2023-01-25T01:56:26.730Z,12.20
2023-01-25T01:58:56.906Z,11.10
2023-01-25T02:01:24.275Z,12.40
2023-01-25T02:03:51.693Z,11.80
2023-01-25T02:06:33.564Z,11.93
2023-01-25T02:09:01.400Z,13.07
2023-01-25T02:11:28.677Z,12.00
2023-01-25T02:13:57.364Z,11.77
2023-01-25T02:16:26.395Z,11.67
2023-01-25T02:18:54.680Z,12.07
2023-01-25T02:21:24.273Z,12.67
2023-01-25T02:24:18.540Z,12.30
2023-01-25T02:26:46.302Z,11.60
2023-01-25T02:29:13.783Z,11.67
2023-01-25T02:31:41.000Z,12.30
2023-01-25T02:34:09.224Z,11.87
2023-01-25T02:36:40.567Z,12.37
2023-01-25T02:39:16.666Z,12.10
2023-01-25T02:41:46.776Z,12.00
2023-01-25T02:44:20.425Z,12.20
2023-01-25T02:46:50.644Z,13.77
2023-01-25T02:49:18.838Z,12.67
2023-01-25T02:51:48.826Z,12.10
2023-01-25T02:54:17.490Z,12.73
2023-01-25T02:56:44.874Z,13.17
2023-01-25T02:59:13.409Z,12.63
2023-01-25T03:01:44.060Z,12.00
2023-01-25T03:04:11.727Z,12.70
2023-01-25T03:06:39.420Z,13.07
2023-01-25T03:09:08.865Z,13.70
2023-01-25T03:11:37.393Z,13.43
2023-01-25T03:14:05.092Z,13.57
2023-01-25T03:16:32.754Z,14.07
2023-01-25T03:19:01.476Z,13.77
2023-01-25T03:21:32.438Z,14.07
2023-01-25T03:24:01.335Z,12.80
2023-01-25T03:26:55.779Z,13.23
2023-01-25T03:29:28.585Z,12.67
2023-01-25T03:31:56.121Z,13.17
2023-01-25T03:34:23.924Z,13.83
2023-01-25T03:36:51.155Z,11.37
2023-01-25T03:39:18.777Z,11.43
2023-01-25T03:41:46.853Z,12.20
2023-01-25T03:44:33.207Z,13.20
2023-01-25T03:47:00.622Z,13.23
2023-01-25T03:49:29.029Z,12.93
2023-01-25T03:51:58.065Z,13.37
2023-01-25T03:54:33.905Z,12.13
2023-01-25T03:57:03.312Z,12.30
2023-01-25T03:59:34.213Z,11.03
2023-01-25T04:02:02.986Z,11.70
2023-01-25T04:04:30.471Z,12.70
2023-01-25T04:06:57.853Z,12.03
2023-01-25T04:09:25.778Z,12.47
2023-01-25T04:11:56.452Z,11.03
2023-01-25T04:14:42.477Z,11.67
2023-01-25T04:17:14.130Z,12.57
2023-01-25T04:19:53.099Z,10.47
2023-01-25T04:22:25.075Z,11.20
2023-01-25T04:24:55.978Z,11.23
2023-01-25T04:27:23.710Z,10.87
2023-01-25T04:30:08.507Z,10.97
2023-01-25T04:32:38.146Z,12.13
2023-01-25T04:35:15.956Z,11.73
2023-01-25T04:37:44.030Z,12.13
2023-01-25T04:40:12.636Z,11.90
2023-01-25T04:42:44.225Z,11.27
2023-01-25T04:45:12.349Z,12.07
2023-01-25T04:47:39.986Z,13.13
2023-01-25T04:50:08.164Z,12.60
2023-01-25T04:52:35.455Z,11.97
2023-01-25T04:55:02.942Z,10.93
2023-01-25T04:57:34.768Z,11.07
2023-01-25T05:00:02.836Z,11.17
2023-01-25T05:02:30.416Z,11.80
2023-01-25T05:04:58.393Z,11.43
2023-01-25T05:07:25.768Z,10.63
2023-01-25T05:09:53.118Z,12.03
2023-01-25T05:12:23.096Z,10.80
2023-01-25T05:15:02.911Z,10.90
2023-01-25T05:17:30.344Z,11.10
2023-01-25T05:19:57.643Z,11.13
2023-01-25T05:22:25.673Z,11.10
2023-01-25T05:24:54.160Z,11.50
2023-01-25T05:27:23.084Z,10.60
2023-01-25T05:29:56.596Z,10.03
2023-01-25T05:32:39.543Z,9.90
2023-01-25T05:35:07.574Z,11.13
2023-01-25T05:37:35.177Z,11.70
2023-01-25T05:40:06.678Z,11.93
2023-01-25T05:42:38.043Z,11.83
2023-01-25T05:45:09.877Z,11.73
2023-01-25T05:47:39.652Z,12.40
2023-01-25T05:50:08.824Z,12.30
2023-01-25T05:53:02.863Z,11.60
2023-01-25T05:55:30.807Z,11.87
2023-01-25T05:58:03.390Z,12.00
2023-01-25T06:00:31.198Z,11.13
2023-01-25T06:03:00.873Z,11.93
2023-01-25T06:05:29.417Z,11.27
2023-01-25T06:07:56.959Z,11.37
2023-01-25T06:10:27.312Z,10.83
2023-01-25T06:12:59.340Z,9.97
2023-01-25T06:15:27.175Z,9.33
2023-01-25T06:17:58.477Z,10.10
2023-01-25T06:20:58.538Z,11.87
2023-01-25T06:23:36.270Z,11.27
2023-01-25T06:26:05.745Z,11.40
2023-01-25T06:28:33.862Z,9.60
2023-01-25T06:31:05.649Z,9.33
2023-01-25T06:33:33.244Z,8.93
2023-01-25T06:36:20.923Z,9.20
2023-01-25T06:38:50.796Z,10.23
2023-01-25T06:41:18.905Z,11.73
2023-01-25T06:43:46.866Z,11.30
2023-01-25T06:46:14.414Z,13.13
2023-01-25T06:48:43.082Z,11.17
2023-01-25T06:51:14.479Z,10.27
2023-01-25T06:53:43.268Z,10.47
2023-01-25T06:56:12.944Z,11.23
2023-01-25T06:58:41.159Z,11.03
2023-01-25T07:01:13.013Z,12.30
2023-01-25T07:03:40.959Z,12.40
2023-01-25T07:06:09.141Z,12.30
2023-01-25T07:08:37.372Z,11.83
2023-01-25T07:11:06.043Z,11.90
2023-01-25T07:13:34.741Z,10.77
2023-01-25T07:16:03.243Z,11.87
2023-01-25T07:18:31.341Z,10.67
2023-01-25T07:21:13.019Z,11.03
2023-01-25T07:23:41.558Z,10.07
2023-01-25T07:26:27.296Z,10.03
2023-01-25T07:28:54.797Z,10.13
2023-01-25T07:31:22.437Z,11.40
2023-01-25T07:33:50.425Z,10.30
2023-01-25T07:36:18.113Z,9.27
2023-01-25T07:38:45.341Z,11.33
2023-01-25T07:41:13.221Z,10.63
2023-01-25T07:43:40.474Z,10.40
2023-01-25T07:46:11.576Z,10.80
2023-01-25T07:48:39.648Z,11.13
2023-01-25T07:51:23.252Z,11.47
2023-01-25T07:53:51.235Z,11.80
2023-01-25T07:56:19.459Z,11.57
2023-01-25T07:58:47.002Z,11.67
2023-01-25T08:01:15.856Z,10.33
2023-01-25T08:03:44.045Z,10.93
2023-01-25T08:06:11.741Z,10.57
2023-01-25T08:08:42.385Z,10.47
2023-01-25T08:11:09.805Z,10.53
2023-01-25T08:13:37.044Z,11.07
2023-01-25T08:16:04.503Z,10.97
2023-01-25T08:18:31.816Z,11.30
2023-01-25T08:20:59.861Z,11.13
2023-01-25T08:23:28.719Z,10.43
2023-01-25T08:25:56.552Z,10.23
2023-01-25T08:28:24.058Z,11.47
2023-01-25T08:30:57.273Z,11.67
2023-01-25T08:33:24.864Z,12.20
2023-01-25T08:35:56.837Z,10.97
2023-01-25T08:38:24.141Z,11.27
2023-01-25T08:40:51.811Z,11.43
2023-01-25T08:43:19.066Z,11.47
2023-01-25T08:45:46.308Z,10.17
2023-01-25T08:48:15.650Z,10.40
2023-01-25T08:50:47.296Z,11.13
2023-01-25T08:53:14.748Z,9.23
2023-01-25T08:55:43.075Z,9.93
2023-01-25T08:58:16.982Z,9.97
2023-01-25T09:00:45.044Z,10.60
2023-01-25T09:03:12.745Z,10.50
2023-01-25T09:05:40.501Z,10.43
2023-01-25T09:08:09.021Z,10.53
2023-01-25T09:10:36.285Z,10.80
2023-01-25T09:13:03.827Z,12.33
2023-01-25T09:15:31.167Z,11.90
2023-01-25T09:17:58.366Z,12.43
2023-01-25T09:20:25.596Z,12.73
2023-01-25T09:22:52.979Z,13.73
2023-01-25T09:25:20.326Z,12.17
2023-01-25T09:27:51.056Z,13.37
2023-01-25T09:30:19.579Z,12.20
2023-01-25T09:32:51.681Z,12.97
2023-01-25T09:35:19.113Z,12.93
2023-01-25T09:37:50.695Z,12.40
2023-01-25T09:40:24.774Z,12.47
2023-01-25T09:42:54.996Z,11.33
2023-01-25T09:45:35.583Z,11.70
2023-01-25T09:48:29.093Z,13.00
2023-01-25T09:51:19.180Z,12.73
2023-01-25T09:53:54.207Z,13.60
2023-01-25T09:56:30.634Z,13.40
2023-01-25T09:59:03.730Z,12.63
2023-01-25T10:01:39.244Z,13.90
2023-01-25T10:04:09.615Z,12.67
2023-01-25T10:06:39.476Z,12.33
2023-01-25T10:09:13.780Z,11.47
2023-01-25T10:11:41.536Z,12.63
2023-01-25T10:14:16.340Z,11.70
2023-01-25T10:16:52.288Z,12.00
2023-01-25T10:19:24.017Z,10.53
2023-01-25T10:21:57.240Z,12.03
2023-01-25T10:24:36.784Z,12.53
2023-01-25T10:27:17.126Z,11.43
2023-01-25T10:29:44.372Z,10.30
2023-01-25T10:32:20.038Z,11.97
2023-01-25T10:34:56.392Z,11.53
2023-01-25T10:37:29.782Z,11.40
2023-01-25T10:39:57.041Z,11.90
2023-01-25T10:42:27.329Z,10.70
2023-01-25T10:44:54.744Z,11.50
2023-01-25T10:47:46.258Z,10.67
2023-01-25T10:50:33.660Z,11.70
2023-01-25T10:53:01.017Z,11.93
2023-01-25T10:55:28.368Z,12.03
2023-01-25T10:57:59.907Z,10.83
2023-01-25T11:00:38.680Z,11.50
2023-01-25T11:03:06.342Z,10.60
2023-01-25T11:05:33.821Z,9.83
2023-01-25T11:08:20.972Z,11.57
2023-01-25T11:10:48.453Z,10.47
2023-01-25T11:13:15.638Z,10.63
2023-01-25T11:15:47.573Z,10.53
2023-01-25T11:18:19.093Z,9.13
2023-01-25T11:20:46.412Z,9.30
2023-01-25T11:23:25.349Z,11.10
2023-01-25T11:25:53.197Z,9.40
2023-01-25T11:28:21.761Z,8.87
2023-01-25T11:30:49.505Z,9.87
2023-01-25T11:33:18.194Z,9.27
2023-01-25T11:35:53.315Z,9.53
2023-01-25T11:38:23.370Z,9.67
2023-01-25T11:40:59.904Z,10.00
2023-01-25T11:43:27.094Z,9.33
2023-01-25T11:46:01.822Z,10.17
2023-01-25T11:48:35.418Z,9.57
2023-01-25T11:51:07.195Z,9.97
2023-01-25T11:53:49.792Z,9.27
2023-01-25T11:56:20.410Z,9.83
2023-01-25T11:58:50.596Z,10.10
2023-01-25T12:01:20.898Z,9.53
2023-01-25T12:03:48.284Z,9.10
2023-01-25T12:06:34.426Z,10.13
2023-01-25T12:09:07.030Z,9.83
2023-01-25T12:12:03.655Z,9.27
2023-01-25T12:14:49.845Z,9.60
2023-01-25T12:17:24.583Z,10.37
2023-01-25T12:20:00.996Z,10.07
2023-01-25T12:22:28.405Z,10.10
2023-01-25T12:24:56.987Z,9.33
2023-01-25T12:27:25.995Z,9.43
2023-01-25T12:29:57.635Z,9.07
2023-01-25T12:32:29.589Z,8.90
2023-01-25T12:35:23.271Z,9.10
2023-01-25T12:37:51.752Z,9.77
2023-01-25T12:40:37.882Z,8.83
2023-01-25T12:43:05.956Z,10.53
2023-01-25T12:45:35.706Z,9.33
2023-01-25T12:48:23.341Z,8.53
2023-01-25T12:50:53.499Z,9.23
2023-01-25T12:53:21.104Z,9.17
2023-01-25T12:55:49.191Z,9.20
2023-01-25T12:58:23.838Z,8.87
2023-01-25T13:01:17.119Z,8.60
2023-01-25T13:04:09.905Z,9.10
2023-01-25T13:06:50.919Z,9.47
2023-01-25T13:09:28.908Z,8.57
2023-01-25T13:11:56.129Z,8.37
2023-01-25T13:14:39.424Z,8.13
2023-01-25T13:17:23.319Z,8.67
2023-01-25T13:19:51.666Z,8.67
2023-01-25T13:22:37.890Z,8.47
2023-01-25T13:25:05.529Z,8.73
2023-01-25T13:27:36.660Z,8.37
2023-01-25T13:30:22.833Z,8.60
2023-01-25T13:32:50.768Z,9.13
2023-01-25T13:35:28.809Z,9.13
2023-01-25T13:38:19.436Z,9.13
2023-01-25T13:40:46.823Z,9.10
2023-01-25T13:43:13.972Z,9.73
2023-01-25T13:45:59.795Z,9.57
2023-01-25T13:48:29.937Z,9.77
2023-01-25T13:51:09.863Z,9.70
2023-01-25T13:53:39.612Z,10.67
2023-01-25T13:56:24.930Z,8.87
2023-01-25T13:58:52.292Z,8.93
2023-01-25T14:01:21.076Z,10.37
2023-01-25T14:03:49.849Z,9.40
2023-01-25T14:06:18.538Z,9.50
2023-01-25T14:08:46.423Z,9.30
2023-01-25T14:11:23.940Z,8.97
2023-01-25T14:14:23.315Z,8.80
2023-01-25T14:17:04.065Z,8.83
2023-01-25T14:19:32.326Z,8.83
2023-01-25T14:22:18.141Z,8.73
2023-01-25T14:24:46.564Z,9.43
2023-01-25T14:27:14.924Z,8.37
2023-01-25T14:29:42.513Z,9.10
2023-01-25T14:32:16.976Z,8.30
2023-01-25T14:34:44.264Z,9.10
2023-01-25T14:37:20.681Z,9.00
2023-01-25T14:39:48.779Z,10.07
2023-01-25T14:42:16.717Z,9.17
2023-01-25T14:44:44.780Z,9.43
2023-01-25T14:47:23.134Z,10.37
2023-01-25T14:49:50.502Z,10.30
2023-01-25T14:52:19.419Z,9.90
2023-01-25T14:54:49.223Z,9.93
2023-01-25T14:57:33.231Z,9.83
2023-01-25T15:00:01.546Z,9.43
2023-01-25T15:02:33.645Z,10.57
2023-01-25T15:05:15.197Z,10.60
2023-01-25T15:07:43.000Z,11.67
2023-01-25T15:10:16.105Z,12.87
2023-01-25T15:12:43.432Z,11.60
2023-01-25T15:15:21.651Z,11.80
2023-01-25T15:17:50.797Z,13.90
2023-01-25T15:20:28.225Z,12.37
2023-01-25T15:22:57.244Z,11.63
2023-01-25T15:25:25.108Z,11.63
2023-01-25T15:27:52.515Z,11.17
2023-01-25T15:30:19.883Z,11.07
2023-01-25T15:32:47.464Z,10.40
2023-01-25T15:35:15.429Z,11.20
2023-01-25T15:37:42.827Z,10.80
2023-01-25T15:40:11.077Z,11.07
2023-01-25T15:42:38.806Z,11.20
2023-01-25T15:45:07.015Z,10.60
2023-01-25T15:47:35.618Z,11.00
2023-01-25T15:50:03.332Z,10.70
2023-01-25T15:52:30.632Z,11.17
2023-01-25T15:55:01.780Z,11.67
2023-01-25T15:57:35.090Z,11.57
2023-01-25T16:00:02.817Z,11.90
2023-01-25T16:02:50.293Z,12.33
2023-01-25T16:05:17.922Z,11.93
2023-01-25T16:07:46.010Z,12.63
2023-01-25T16:10:19.742Z,12.40
2023-01-25T16:13:06.236Z,12.40
2023-01-25T16:15:33.525Z,12.37
2023-01-25T16:18:00.765Z,12.33
2023-01-25T16:20:30.301Z,12.10
2023-01-25T16:22:57.651Z,11.73
2023-01-25T16:25:24.891Z,11.70
2023-01-25T16:27:52.172Z,12.80
2023-01-25T16:30:24.123Z,12.00
2023-01-25T16:32:52.678Z,11.57
2023-01-25T16:35:20.756Z,12.80
2023-01-25T16:37:48.055Z,12.03
2023-01-25T16:40:31.575Z,13.30
2023-01-25T16:42:59.236Z,12.90
2023-01-25T16:45:26.708Z,13.30
2023-01-25T16:47:53.975Z,13.87
2023-01-25T16:50:22.093Z,15.20
2023-01-25T16:52:51.342Z,14.83
2023-01-25T16:55:19.448Z,14.07
2023-01-25T16:57:50.058Z,15.03
2023-01-25T17:00:17.486Z,14.87
2023-01-25T17:02:58.161Z,15.13
2023-01-25T17:05:28.899Z,14.80
2023-01-25T17:07:56.304Z,17.40
2023-01-25T17:10:24.457Z,15.57
2023-01-25T17:12:52.026Z,15.70
2023-01-25T17:15:20.461Z,15.87
2023-01-25T17:17:47.665Z,15.77
2023-01-25T17:20:15.050Z,16.33
2023-01-25T17:22:44.505Z,16.00
2023-01-25T17:25:12.130Z,20.27
2023-01-25T17:27:39.423Z,18.80
2023-01-25T17:30:07.205Z,15.73
2023-01-25T17:32:34.556Z,15.97
2023-01-25T17:35:02.645Z,42.63
2023-01-25T17:37:29.875Z,32.57
2023-01-25T17:39:57.156Z,22.17
2023-01-25T17:42:24.456Z,15.63
2023-01-25T17:44:51.821Z,16.13
2023-01-25T17:47:19.060Z,15.97
2023-01-25T17:49:46.430Z,15.73
2023-01-25T17:52:13.850Z,16.70
2023-01-25T17:54:41.132Z,15.73
2023-01-25T17:57:09.055Z,15.77
2023-01-25T17:59:36.857Z,16.23
2023-01-25T18:02:04.139Z,15.67
2023-01-25T18:04:31.564Z,15.60
2023-01-25T18:06:58.838Z,15.97
2023-01-25T18:09:26.023Z,16.43
2023-01-25T18:11:53.581Z,15.07
2023-01-25T18:14:21.108Z,15.13
2023-01-25T18:16:49.244Z,15.40
2023-01-25T18:19:19.550Z,15.03
2023-01-25T18:21:46.931Z,16.13
2023-01-25T18:24:14.214Z,15.77
2023-01-25T18:26:42.697Z,16.13
2023-01-25T18:29:09.945Z,16.57
2023-01-25T18:31:37.464Z,16.43
2023-01-25T18:34:05.051Z,15.73
2023-01-25T18:36:32.783Z,17.03
2023-01-25T18:39:01.353Z,15.23
2023-01-25T18:41:28.791Z,16.93
2023-01-25T18:43:56.845Z,14.90
2023-01-25T18:46:24.469Z,15.13
2023-01-25T18:48:52.213Z,15.43
2023-01-25T18:51:19.574Z,15.53
2023-01-25T18:53:47.762Z,15.07
2023-01-25T18:56:16.379Z,15.53
2023-01-25T18:58:43.908Z,15.40
2023-01-25T19:01:15.818Z,14.83
2023-01-25T19:03:43.907Z,13.90
2023-01-25T19:06:11.445Z,15.13
2023-01-25T19:08:43.165Z,14.90
2023-01-25T19:11:18.271Z,14.57
2023-01-25T19:13:45.548Z,15.50
2023-01-25T19:16:17.160Z,15.70
2023-01-25T19:18:52.329Z,14.83
2023-01-25T19:21:27.249Z,15.37
2023-01-25T19:23:55.346Z,15.20
2023-01-25T19:26:24.497Z,15.27
2023-01-25T19:28:52.327Z,15.07
2023-01-25T19:31:21.013Z,14.77
2023-01-25T19:33:48.978Z,14.70
2023-01-25T19:36:19.241Z,14.83
2023-01-25T19:38:48.046Z,14.00
2023-01-25T19:41:16.755Z,12.13
2023-01-25T19:43:44.536Z,12.50
2023-01-25T19:46:13.531Z,11.27
2023-01-25T19:48:41.422Z,11.57
2023-01-25T19:51:08.835Z,12.00
2023-01-25T19:53:36.211Z,11.73
2023-01-25T19:56:04.591Z,12.80
2023-01-25T19:58:32.049Z,11.60
2023-01-25T20:01:05.989Z,12.43
2023-01-25T20:03:33.450Z,11.23
2023-01-25T20:06:00.904Z,12.03
2023-01-25T20:08:31.923Z,11.67
2023-01-25T20:11:03.246Z,12.00
2023-01-25T20:13:30.800Z,11.77
2023-01-25T20:15:58.078Z,12.23
2023-01-25T20:18:25.329Z,11.60
2023-01-25T20:21:00.099Z,12.03
2023-01-25T20:23:27.922Z,14.63
2023-01-25T20:25:59.468Z,15.80
2023-01-25T20:28:27.387Z,16.30
2023-01-25T20:30:55.008Z,17.50
2023-01-25T20:33:22.238Z,18.17
2023-01-25T20:35:50.269Z,26.93
2023-01-25T20:38:17.682Z,29.87
2023-01-25T20:40:44.935Z,22.27
2023-01-25T20:43:12.206Z,18.50
2023-01-25T20:45:39.524Z,18.70
2023-01-25T20:48:07.171Z,19.93
2023-01-25T20:50:34.460Z,17.23
2023-01-25T20:53:01.806Z,17.90
2023-01-25T20:55:29.057Z,18.00
2023-01-25T20:57:56.483Z,19.13
2023-01-25T21:00:25.474Z,17.40
2023-01-25T21:02:52.921Z,17.40
2023-01-25T21:05:20.179Z,18.23
2023-01-25T21:07:47.469Z,18.47
2023-01-25T21:10:14.907Z,19.27
2023-01-25T21:12:42.170Z,17.50
2023-01-25T21:15:10.332Z,16.67
2023-01-25T21:17:40.664Z,17.37
2023-01-25T21:20:08.310Z,18.93
2023-01-25T21:22:35.573Z,17.67
2023-01-25T21:25:02.943Z,17.40
2023-01-25T21:27:30.928Z,18.43
2023-01-25T21:29:58.161Z,18.20
2023-01-25T21:32:25.603Z,17.07
2023-01-25T21:34:52.850Z,18.93
2023-01-25T21:37:22.361Z,18.70
2023-01-25T21:39:53.031Z,18.53
2023-01-25T21:42:20.977Z,18.20
2023-01-25T21:45:26.283Z,20.73
2023-01-25T21:47:57.809Z,20.17
2023-01-25T21:50:43.908Z,21.30
2023-01-25T21:53:11.335Z,22.00
2023-01-25T21:55:38.744Z,21.53
2023-01-25T21:58:06.292Z,21.40
2023-01-25T22:00:35.875Z,21.30
2023-01-25T22:03:03.580Z,22.17
2023-01-25T22:05:31.101Z,22.60
2023-01-25T22:07:59.510Z,22.00
2023-01-25T22:10:27.055Z,20.83
2023-01-25T22:12:54.410Z,21.00
2023-01-25T22:15:22.075Z,23.07
2023-01-25T22:17:49.239Z,20.77
2023-01-25T22:20:16.964Z,21.70
2023-01-25T22:22:44.295Z,20.83
2023-01-25T22:25:12.108Z,18.87
2023-01-25T22:27:49.886Z,18.90
2023-01-25T22:30:17.235Z,18.87
2023-01-25T22:32:44.405Z,18.87
2023-01-25T22:35:11.741Z,20.23
2023-01-25T22:37:39.441Z,18.10
2023-01-25T22:40:07.411Z,17.50
2023-01-25T22:42:35.252Z,17.67
2023-01-25T22:45:02.607Z,17.17
2023-01-25T22:47:29.873Z,18.10
2023-01-25T22:49:57.098Z,20.20
2023-01-25T22:52:24.445Z,21.77
2023-01-25T22:54:54.748Z,22.37
2023-01-25T22:57:22.040Z,23.43
2023-01-25T23:00:08.709Z,22.33
2023-01-25T23:02:38.018Z,22.47
2023-01-25T23:05:05.592Z,22.80
2023-01-25T23:07:32.812Z,23.00
2023-01-25T23:10:00.174Z,23.00
2023-01-25T23:12:27.387Z,22.90
2023-01-25T23:14:54.797Z,22.87
2023-01-25T23:17:55.347Z,23.33
2023-01-25T23:20:22.834Z,21.53
2023-01-25T23:22:51.632Z,22.77
2023-01-25T23:25:19.675Z,22.87
2023-01-25T23:27:47.878Z,22.53
2023-01-25T23:30:15.223Z,22.30
2023-01-25T23:32:49.271Z,22.77
2023-01-25T23:35:17.972Z,21.83
2023-01-25T23:37:46.240Z,23.37
2023-01-25T23:40:14.757Z,23.10
2023-01-25T23:42:42.202Z,22.07
2023-01-25T23:45:10.664Z,21.77
2023-01-25T23:47:38.015Z,23.07
2023-01-25T23:50:07.108Z,21.40
2023-01-25T23:52:35.086Z,22.07
2023-01-25T23:55:02.464Z,21.17
2023-01-25T23:57:29.778Z,22.00
2023-01-25T23:59:57.052Z,22.10
